Time;durP1;ratioP1;P1;durP2;ratioP2;P2;SDS_P1;SDS_P2;PMS_P1;PMS_P2;Temp;Humidity;BMP_temperature;BMP_pressure;BME280_temperature;BME280_humidity;BME280_pressure;Samples;Min_cycle;Max_cycle;Signal;HPM_P1;HPM_P2
2021/12/28 00:00:44;;;;;;;19.23;9.65;;;0.90;99.90;;;;;;5016784;28;20029;-69
2021/12/28 00:03:10;;;;;;;22.70;10.23;;;1.00;99.90;;;;;;5014089;28;20021;-68
2021/12/28 00:05:35;;;;;;;16.73;8.93;;;0.90;99.90;;;;;;5018566;28;20041;-68
2021/12/28 00:08:02;;;;;;;19.40;10.23;;;0.90;99.90;;;;;;5015340;28;20395;-68
2021/12/28 00:10:27;;;;;;;17.42;9.45;;;0.90;99.90;;;;;;5017035;28;20025;-69
2021/12/28 00:12:54;;;;;;;21.03;9.83;;;0.90;99.90;;;;;;5015307;28;20040;-69
2021/12/28 00:18:02;;;;;;;17.08;9.93;;;1.00;99.90;;;;;;5015902;28;20017;-69
2021/12/28 00:20:31;;;;;;;19.55;8.88;;;1.00;99.90;;;;;;5017377;28;20653;-69
2021/12/28 00:22:58;;;;;;;19.23;9.68;;;1.00;99.90;;;;;;4995858;28;20029;-69
2021/12/28 00:25:23;;;;;;;18.95;9.43;;;0.90;99.90;;;;;;5023104;28;20175;-68
2021/12/28 00:27:50;;;;;;;18.87;9.23;;;1.00;99.90;;;;;;5022677;28;20080;-69
2021/12/28 00:30:16;;;;;;;19.08;9.77;;;1.00;99.90;;;;;;5019336;28;20097;-69
2021/12/28 00:32:42;;;;;;;16.55;9.35;;;1.00;99.90;;;;;;5003546;28;20087;-69
2021/12/28 00:35:09;;;;;;;22.50;9.80;;;1.00;99.90;;;;;;5017729;28;20319;-69
2021/12/28 00:37:35;;;;;;;21.77;10.23;;;1.00;99.90;;;;;;5019950;28;20038;-69
2021/12/28 00:40:03;;;;;;;16.88;10.00;;;1.00;99.90;;;;;;5002739;28;20025;-69
2021/12/28 00:42:29;;;;;;;20.75;10.23;;;1.00;99.90;;;;;;5022080;28;20126;-69
2021/12/28 00:44:54;;;;;;;17.33;9.53;;;0.90;99.90;;;;;;5016216;28;20695;-69
2021/12/28 00:47:20;;;;;;;15.27;9.13;;;1.00;99.90;;;;;;5023027;28;20025;-69
2021/12/28 00:49:46;;;;;;;17.30;9.93;;;1.00;99.90;;;;;;5023211;28;20029;-69
2021/12/28 00:52:11;;;;;;;18.07;9.43;;;0.90;99.90;;;;;;5016013;28;20099;-70
2021/12/28 00:54:37;;;;;;;19.27;9.47;;;1.00;99.90;;;;;;5003658;28;20626;-69
2021/12/28 00:57:03;;;;;;;19.50;9.73;;;1.00;99.90;;;;;;5017376;28;20096;-69
2021/12/28 00:59:29;;;;;;;17.50;9.37;;;1.00;99.90;;;;;;5003404;28;20776;-69
2021/12/28 01:01:55;;;;;;;19.60;10.27;;;0.90;99.90;;;;;;5019910;28;20302;-69
2021/12/28 01:04:20;;;;;;;18.93;9.53;;;0.90;99.90;;;;;;5015567;28;20060;-70
2021/12/28 01:06:46;;;;;;;16.07;9.33;;;0.90;99.90;;;;;;5023453;28;20366;-69
2021/12/28 01:09:12;;;;;;;18.13;11.17;;;0.90;99.90;;;;;;5019040;28;20706;-70
2021/12/28 01:11:38;;;;;;;15.57;9.43;;;0.90;99.90;;;;;;5018591;28;20036;-70
2021/12/28 01:14:04;;;;;;;21.00;10.00;;;1.00;99.90;;;;;;5018125;28;20029;-72
2021/12/28 01:16:30;;;;;;;16.77;9.27;;;1.00;99.90;;;;;;5014945;28;20034;-70
2021/12/28 01:18:55;;;;;;;18.20;9.70;;;1.00;99.90;;;;;;5023847;28;20497;-70
2021/12/28 01:21:21;;;;;;;19.23;10.07;;;1.00;99.90;;;;;;5021143;28;20629;-70
2021/12/28 01:23:47;;;;;;;20.13;9.67;;;1.00;99.90;;;;;;5018584;28;20632;-70
2021/12/28 01:26:13;;;;;;;18.13;9.33;;;0.90;99.90;;;;;;5015360;28;20318;-70
2021/12/28 01:28:38;;;;;;;18.80;9.07;;;0.90;99.90;;;;;;5020778;28;20026;-70
2021/12/28 01:31:04;;;;;;;18.77;10.17;;;0.90;99.90;;;;;;5016853;28;20521;-70
2021/12/28 01:33:30;;;;;;;21.63;10.27;;;1.00;99.90;;;;;;5010730;28;20032;-70
2021/12/28 01:35:58;;;;;;;20.45;9.90;;;1.00;99.90;;;;;;5020596;28;20040;-70
2021/12/28 01:38:24;;;;;;;18.73;10.45;;;0.90;99.90;;;;;;4998838;28;20124;-70
2021/12/28 01:40:49;;;;;;;17.70;10.40;;;0.90;99.90;;;;;;5022116;28;20413;-70
2021/12/28 01:43:18;;;;;;;20.17;10.47;;;0.90;99.90;;;;;;5017489;28;20028;-70
2021/12/28 01:45:56;;;;;;;18.05;9.50;;;1.00;99.90;;;;;;5017387;28;20028;-70
2021/12/28 01:48:24;;;;;;;21.17;10.63;;;1.10;99.90;;;;;;5023355;28;20481;-70
2021/12/28 01:50:54;;;;;;;20.40;9.57;;;1.10;99.90;;;;;;5023335;28;20029;-70
2021/12/28 01:53:19;;;;;;;16.58;9.25;;;1.10;99.90;;;;;;5020282;28;20974;-71
2021/12/28 01:55:47;;;;;;;18.73;9.97;;;1.10;99.90;;;;;;5018903;28;20052;-71
2021/12/28 01:58:13;;;;;;;22.08;10.13;;;1.10;99.90;;;;;;5022430;28;20077;-70
2021/12/28 02:00:41;;;;;;;18.27;9.75;;;1.10;99.90;;;;;;5016849;28;20025;-70
2021/12/28 02:03:14;;;;;;;21.67;9.73;;;1.10;99.90;;;;;;5021189;28;20504;-71
2021/12/28 02:05:41;;;;;;;19.85;10.07;;;1.10;99.90;;;;;;5016065;28;20674;-70
2021/12/28 02:08:08;;;;;;;19.08;9.60;;;1.10;99.90;;;;;;5020899;28;20022;-70
2021/12/28 02:10:36;;;;;;;18.20;9.88;;;1.20;99.90;;;;;;5018386;28;20040;-70
2021/12/28 02:13:05;;;;;;;16.15;9.57;;;1.20;99.90;;;;;;5019526;28;20525;-70
2021/12/28 02:15:32;;;;;;;21.58;9.80;;;1.20;99.90;;;;;;4996971;28;20399;-70
2021/12/28 02:17:59;;;;;;;17.30;9.48;;;1.30;99.90;;;;;;5015659;28;20728;-71
2021/12/28 02:20:24;;;;;;;;;;;1.30;99.90;;;;;;5017907;28;20343;-74
2021/12/28 02:22:50;;;;;;;18.90;9.40;;;1.40;99.90;;;;;;5019789;28;19909;-70
2021/12/28 02:25:18;;;;;;;19.67;10.50;;;1.30;99.90;;;;;;5022128;28;20034;-70
2021/12/28 02:27:45;;;;;;;18.73;9.52;;;1.20;99.90;;;;;;5011704;28;20016;-70
2021/12/28 02:30:15;;;;;;;19.95;10.15;;;1.20;99.90;;;;;;5019467;28;20021;-70
2021/12/28 02:32:42;;;;;;;17.98;9.40;;;1.20;99.90;;;;;;5015668;28;20505;-71
2021/12/28 02:35:11;;;;;;;19.08;9.77;;;1.20;99.90;;;;;;5019976;28;20040;-69
2021/12/28 02:37:37;;;;;;;19.02;9.88;;;1.20;99.90;;;;;;5013701;28;20095;-70
2021/12/28 02:40:05;;;;;;;18.85;9.20;;;1.20;99.90;;;;;;5021815;28;20405;-70
2021/12/28 02:42:31;;;;;;;17.55;9.32;;;1.20;99.90;;;;;;5009370;28;20580;-70
2021/12/28 02:45:09;;;;;;;21.10;9.87;;;1.20;99.90;;;;;;5023267;28;20040;-71
2021/12/28 02:47:37;;;;;;;17.77;9.98;;;1.10;99.90;;;;;;5018131;28;20651;-70
2021/12/28 02:50:07;;;;;;;19.02;10.98;;;1.00;99.90;;;;;;5020132;28;20455;-70
2021/12/28 02:52:36;;;;;;;18.80;10.50;;;0.90;99.90;;;;;;5017000;28;20033;-71
2021/12/28 02:55:03;;;;;;;20.00;9.80;;;0.90;99.90;;;;;;5019145;28;20025;-70
2021/12/28 02:57:28;;;;;;;19.70;9.50;;;1.00;99.90;;;;;;5018348;28;20056;-71
2021/12/28 02:59:54;;;;;;;18.47;10.37;;;1.00;99.90;;;;;;5002807;28;20124;-70
2021/12/28 03:02:20;;;;;;;18.40;9.47;;;1.00;99.90;;;;;;5021165;28;20374;-70
2021/12/28 03:04:45;;;;;;;22.00;10.23;;;1.00;99.90;;;;;;5018558;28;20036;-69
2021/12/28 03:07:11;;;;;;;18.33;9.17;;;1.10;99.90;;;;;;5022547;28;20051;-70
2021/12/28 03:09:38;;;;;;;18.50;10.37;;;1.00;99.90;;;;;;5017027;28;20503;-70
2021/12/28 03:12:04;;;;;;;18.85;9.63;;;1.00;99.90;;;;;;5020337;28;20014;-70
2021/12/28 03:14:30;;;;;;;17.30;9.77;;;1.00;99.90;;;;;;5018527;28;20559;-71
2021/12/28 03:16:56;;;;;;;21.60;10.63;;;1.00;99.90;;;;;;5020369;28;20037;-69
2021/12/28 03:19:22;;;;;;;18.47;8.20;;;1.00;99.90;;;;;;5021892;28;20029;-70
2021/12/28 03:21:49;;;;;;;19.83;9.87;;;0.90;99.90;;;;;;5018277;28;20057;-70
2021/12/28 03:24:16;;;;;;;;;;;0.90;99.90;;;;;;5014269;28;20398;-70
2021/12/28 03:26:42;;;;;;;20.73;9.73;;;0.90;99.90;;;;;;5020317;28;19916;-70
2021/12/28 03:29:08;;;;;;;17.53;9.87;;;0.90;99.90;;;;;;5016954;28;20306;-71
2021/12/28 03:31:34;;;;;;;19.33;10.70;;;1.00;99.90;;;;;;5021428;28;20109;-70
2021/12/28 03:34:00;;;;;;;19.80;9.73;;;0.90;99.90;;;;;;5009465;28;20067;-71
2021/12/28 03:36:28;;;;;;;18.13;9.33;;;0.90;99.90;;;;;;5019796;28;20037;-70
2021/12/28 03:38:55;;;;;;;19.45;9.27;;;1.00;99.90;;;;;;5018798;28;20033;-70
2021/12/28 03:41:24;;;;;;;;;;;1.00;99.90;;;;;;5022982;28;20032;-70
2021/12/28 03:43:52;;;;;;;17.63;9.15;;;0.90;99.90;;;;;;5020244;28;19905;-70
2021/12/28 03:46:21;;;;;;;22.23;9.57;;;0.90;99.90;;;;;;5020528;28;20094;-70
2021/12/28 03:48:47;;;;;;;20.67;8.85;;;0.90;99.90;;;;;;5019200;28;20670;-70
2021/12/28 03:51:14;;;;;;;16.80;9.70;;;0.90;99.90;;;;;;5016038;28;20025;-70
2021/12/28 03:53:41;;;;;;;20.23;10.05;;;0.90;99.90;;;;;;5018842;28;20033;-70
2021/12/28 03:56:08;;;;;;;18.20;9.52;;;0.90;99.90;;;;;;5015145;28;20028;-70
2021/12/28 03:58:36;;;;;;;18.08;9.15;;;0.80;99.90;;;;;;5020736;28;20029;-70
2021/12/28 04:01:03;;;;;;;21.05;10.60;;;0.80;99.90;;;;;;5015137;28;20041;-71
2021/12/28 04:03:30;;;;;;;19.80;9.52;;;0.80;99.90;;;;;;5017936;28;20022;-70
2021/12/28 04:05:55;;;;;;;21.15;9.63;;;0.80;99.90;;;;;;5022384;28;20526;-71
2021/12/28 04:08:23;;;;;;;19.47;9.30;;;0.80;99.90;;;;;;5017994;28;20048;-70
2021/12/28 04:11:13;;;;;;;24.88;9.98;;;0.80;99.90;;;;;;5020627;28;20060;-70
2021/12/28 04:13:39;;;;;;;17.08;8.70;;;0.90;99.90;;;;;;5022066;28;20097;-70
2021/12/28 04:16:04;;;;;;;18.53;9.03;;;0.90;99.90;;;;;;5014995;28;20065;-70
2021/12/28 04:18:31;;;;;;;20.97;9.67;;;0.90;99.90;;;;;;5016987;28;20029;-70
2021/12/28 04:20:57;;;;;;;20.63;9.32;;;1.00;99.90;;;;;;5015715;28;20079;-70
2021/12/28 04:23:23;;;;;;;20.33;9.73;;;1.00;99.90;;;;;;5023431;28;20022;-70
2021/12/28 04:25:48;;;;;;;21.63;10.30;;;1.00;99.90;;;;;;5018139;28;20061;-70
2021/12/28 04:28:16;;;;;;;19.03;9.73;;;0.90;99.90;;;;;;5016855;28;20499;-70
2021/12/28 04:30:42;;;;;;;15.30;8.68;;;0.90;99.90;;;;;;5024295;28;20025;-70
2021/12/28 04:33:08;;;;;;;24.80;10.43;;;0.80;99.90;;;;;;4998440;28;20021;-70
2021/12/28 04:35:34;;;;;;;18.95;9.65;;;0.80;99.90;;;;;;5017869;28;20021;-70
2021/12/28 04:38:01;;;;;;;18.33;8.93;;;0.80;99.90;;;;;;5013531;28;20032;-70
2021/12/28 04:40:27;;;;;;;19.80;9.52;;;0.80;99.90;;;;;;5017460;28;20091;-70
2021/12/28 04:42:53;;;;;;;19.17;9.98;;;0.80;99.90;;;;;;5020133;28;20025;-70
2021/12/28 04:45:18;;;;;;;18.30;9.73;;;0.80;99.90;;;;;;5020564;28;20028;-70
2021/12/28 04:47:44;;;;;;;19.87;10.20;;;0.80;99.90;;;;;;5014886;28;20284;-70
2021/12/28 04:50:11;;;;;;;21.67;9.40;;;0.70;99.90;;;;;;5019705;28;20118;-70
2021/12/28 04:52:39;;;;;;;17.50;9.95;;;0.70;99.90;;;;;;5014221;28;20021;-70
2021/12/28 04:55:12;;;;;;;16.85;9.23;;;0.80;99.90;;;;;;5017915;28;20038;-70
2021/12/28 04:57:39;;;;;;;19.70;9.95;;;0.80;99.90;;;;;;5007297;28;20029;-70
2021/12/28 05:00:09;;;;;;;17.38;9.23;;;0.90;99.90;;;;;;5017656;28;20096;-70
2021/12/28 05:02:36;;;;;;;16.73;9.70;;;0.90;99.90;;;;;;5018712;28;20025;-70
2021/12/28 05:05:03;;;;;;;17.17;9.02;;;0.90;99.90;;;;;;5021348;28;20770;-70
2021/12/28 05:07:29;;;;;;;15.40;8.60;;;0.80;99.90;;;;;;5016661;28;20099;-71
2021/12/28 05:09:58;;;;;;;18.65;9.77;;;0.80;99.90;;;;;;5021169;28;20059;-70
2021/12/28 05:12:26;;;;;;;19.80;10.40;;;0.80;99.90;;;;;;5003013;28;20494;-70
2021/12/28 05:14:53;;;;;;;24.25;10.80;;;0.80;99.90;;;;;;5023530;28;20093;-70
2021/12/28 05:17:19;;;;;;;;;;;0.80;99.90;;;;;;5024936;28;20029;-71
2021/12/28 05:19:44;;;;;;;29.40;11.30;;;0.80;99.90;;;;;;5018333;28;19915;-70
2021/12/28 05:22:12;;;;;;;23.27;11.00;;;0.80;99.90;;;;;;5021177;28;20043;-70
2021/12/28 05:24:39;;;;;;;20.00;10.80;;;0.70;99.90;;;;;;5020336;28;20533;-70
2021/12/28 05:27:05;;;;;;;23.98;10.88;;;0.70;99.90;;;;;;5002693;28;20087;-72
2021/12/28 05:29:31;;;;;;;19.58;10.38;;;0.70;99.90;;;;;;5012919;28;20029;-71
2021/12/28 05:31:57;;;;;;;19.03;9.73;;;0.70;99.90;;;;;;5018888;28;20026;-70
2021/12/28 05:34:23;;;;;;;20.08;10.30;;;0.70;99.90;;;;;;5019734;28;20111;-70
2021/12/28 05:36:49;;;;;;;19.67;11.23;;;0.70;99.90;;;;;;5024372;28;20041;-70
2021/12/28 05:39:15;;;;;;;23.83;11.43;;;0.70;99.90;;;;;;4997345;28;20037;-70
2021/12/28 05:41:41;;;;;;;21.45;10.30;;;0.70;99.90;;;;;;5016991;28;20021;-70
2021/12/28 05:44:07;;;;;;;19.17;9.40;;;0.70;99.90;;;;;;5003152;28;20604;-71
2021/12/28 05:46:34;;;;;;;22.77;10.63;;;0.70;99.90;;;;;;5022080;28;20032;-71
2021/12/28 05:49:00;;;;;;;;;;;0.70;99.90;;;;;;5021307;28;20021;-70
2021/12/28 05:51:25;;;;;;;22.02;10.85;;;0.70;99.90;;;;;;5014058;28;20362;-70
2021/12/28 05:53:51;;;;;;;21.33;9.33;;;0.70;99.90;;;;;;5017911;28;20026;-70
2021/12/28 05:56:17;;;;;;;19.10;10.23;;;0.70;99.90;;;;;;5005725;28;20029;-70
2021/12/28 05:58:43;;;;;;;21.10;10.67;;;0.80;99.90;;;;;;5016920;28;20029;-70
2021/12/28 06:01:08;;;;;;;21.87;11.13;;;0.80;99.90;;;;;;5014806;28;20454;-70
2021/12/28 06:03:34;;;;;;;27.57;11.23;;;0.70;99.90;;;;;;5019751;28;20475;-70
2021/12/28 06:06:00;;;;;;;21.90;10.73;;;0.70;99.90;;;;;;5025776;28;20113;-70
2021/12/28 06:08:26;;;;;;;22.80;11.97;;;0.70;99.90;;;;;;5022659;28;20054;-71
2021/12/28 06:10:52;;;;;;;20.83;10.55;;;0.70;99.90;;;;;;5019167;28;20061;-70
2021/12/28 06:13:19;;;;;;;25.33;11.33;;;0.60;99.90;;;;;;5023969;28;20502;-70
2021/12/28 06:15:45;;;;;;;25.20;12.27;;;0.60;99.90;;;;;;5021144;28;20112;-70
2021/12/28 06:18:11;;;;;;;24.48;12.23;;;0.60;99.90;;;;;;5018563;28;20025;-69
2021/12/28 06:20:37;;;;;;;27.00;12.47;;;0.60;99.90;;;;;;5017818;28;20025;-70
2021/12/28 06:23:03;;;;;;;29.70;13.82;;;0.60;99.90;;;;;;5024258;28;20074;-69
2021/12/28 06:25:28;;;;;;;29.20;12.23;;;0.60;99.90;;;;;;5000563;28;20033;-69
2021/12/28 06:27:54;;;;;;;31.73;13.87;;;0.60;99.90;;;;;;5020228;28;20683;-70
2021/12/28 06:30:20;;;;;;;33.63;15.13;;;0.60;99.90;;;;;;5027287;28;20725;-69
2021/12/28 06:32:46;;;;;;;30.13;13.13;;;0.60;99.90;;;;;;5020846;28;20801;-70
2021/12/28 06:35:12;;;;;;;30.53;15.00;;;0.60;99.90;;;;;;5022486;28;20041;-70
2021/12/28 06:37:38;;;;;;;30.17;13.30;;;0.60;99.90;;;;;;5017387;28;20029;-69
2021/12/28 06:40:06;;;;;;;28.48;14.15;;;0.50;99.90;;;;;;5019863;28;20037;-70
2021/12/28 06:42:32;;;;;;;34.53;14.52;;;0.50;99.90;;;;;;5017433;28;20040;-70
2021/12/28 06:44:58;;;;;;;;;;;0.50;99.90;;;;;;5003656;28;20098;-69
2021/12/28 06:47:25;;;;;;;32.85;14.13;;;0.50;99.90;;;;;;5021755;28;19966;-70
2021/12/28 06:49:50;;;;;;;32.40;13.93;;;0.50;99.90;;;;;;5016500;28;20034;-70
2021/12/28 06:52:16;;;;;;;27.67;14.13;;;0.50;99.90;;;;;;5018145;28;20827;-70
2021/12/28 06:54:44;;;;;;;32.97;14.27;;;0.50;99.90;;;;;;5016086;28;20121;-69
2021/12/28 06:57:11;;;;;;;28.98;13.48;;;0.50;99.90;;;;;;5020601;28;20155;-69
2021/12/28 06:59:43;;;;;;;36.53;14.80;;;0.60;99.90;;;;;;5018268;28;20017;-70
2021/12/28 07:02:10;;;;;;;35.33;14.27;;;0.60;99.90;;;;;;5021012;28;20317;-71
2021/12/28 07:04:36;;;;;;;35.47;14.38;;;0.60;99.90;;;;;;5017917;28;20017;-69
2021/12/28 07:07:02;;;;;;;36.22;15.38;;;0.50;99.90;;;;;;5020620;28;20028;-70
2021/12/28 07:09:28;;;;;;;40.20;17.63;;;0.50;99.90;;;;;;5019080;28;20071;-71
2021/12/28 07:11:53;;;;;;;42.50;15.53;;;0.50;99.90;;;;;;5005005;28;20071;-69
2021/12/28 07:14:19;;;;;;;33.43;16.30;;;0.50;99.90;;;;;;5015899;28;20060;-69
2021/12/28 07:16:46;;;;;;;35.10;16.17;;;0.50;99.90;;;;;;5016885;28;20036;-70
2021/12/28 07:19:11;;;;;;;43.15;16.65;;;0.50;99.90;;;;;;5022504;28;20411;-69
2021/12/28 07:21:39;;;;;;;45.57;17.73;;;0.50;99.90;;;;;;5014935;28;20160;-69
2021/12/28 07:24:06;;;;;;;40.80;16.33;;;0.50;99.90;;;;;;5021670;28;20052;-69
2021/12/28 07:26:33;;;;;;;43.03;17.92;;;0.50;99.90;;;;;;5014001;28;20025;-69
2021/12/28 07:28:59;;;;;;;;;;;0.60;99.90;;;;;;5025531;28;20020;-69
2021/12/28 07:31:25;;;;;;;42.90;16.80;;;0.60;99.90;;;;;;5023679;28;19909;-69
2021/12/28 07:33:51;;;;;;;45.93;19.73;;;0.60;99.90;;;;;;5018091;28;20018;-69
2021/12/28 07:36:17;;;;;;;50.60;19.33;;;0.60;99.90;;;;;;5028740;28;20064;-69
2021/12/28 07:38:43;;;;;;;49.53;20.17;;;0.60;99.90;;;;;;5018382;28;20359;-69
2021/12/28 07:41:09;;;;;;;47.27;19.77;;;0.50;99.90;;;;;;5022521;28;20028;-69
2021/12/28 07:43:34;;;;;;;61.57;20.13;;;0.60;99.90;;;;;;5011092;28;20025;-69
2021/12/28 07:46:00;;;;;;;42.60;17.50;;;0.60;99.90;;;;;;5022396;28;20021;-69
2021/12/28 07:48:26;;;;;;;46.47;19.27;;;0.60;99.90;;;;;;5020338;28;20447;-69
2021/12/28 07:50:53;;;;;;;49.07;19.13;;;0.60;99.90;;;;;;5005361;28;20091;-69
2021/12/28 07:53:18;;;;;;;52.40;18.60;;;0.70;99.90;;;;;;5023471;28;20801;-70
2021/12/28 07:55:44;;;;;;;49.37;19.67;;;0.80;99.90;;;;;;5001295;28;20033;-69
2021/12/28 07:58:10;;;;;;;53.87;18.47;;;0.80;99.90;;;;;;5019661;28;20033;-70
2021/12/28 08:00:36;;;;;;;55.63;20.63;;;0.70;99.90;;;;;;5018698;28;20061;-70
2021/12/28 08:03:04;;;;;;;55.23;20.10;;;0.70;99.90;;;;;;5023640;28;20092;-71
2021/12/28 08:05:34;;;;;;;64.55;21.90;;;0.60;99.90;;;;;;5017749;28;20299;-68
2021/12/28 08:08:01;;;;;;;58.92;21.00;;;0.60;99.90;;;;;;5004587;28;20374;-70
2021/12/28 08:10:27;;;;;;;59.22;21.17;;;0.60;99.90;;;;;;5019768;28;20100;-69
2021/12/28 08:12:54;;;;;;;56.17;19.97;;;0.80;99.90;;;;;;5019393;28;21401;-70
2021/12/28 08:15:22;;;;;;;63.60;21.05;;;0.80;99.90;;;;;;5013655;28;20040;-69
2021/12/28 08:17:48;;;;;;;77.10;21.80;;;0.80;99.90;;;;;;5020119;28;20095;-69
2021/12/28 08:20:16;;;;;;;70.70;22.87;;;0.70;99.90;;;;;;5015233;28;20028;-69
2021/12/28 08:22:42;;;;;;;73.35;23.38;;;0.60;99.90;;;;;;5018758;28;20347;-69
2021/12/28 08:25:10;;;;;;;76.07;25.67;;;0.50;99.90;;;;;;5020678;28;20570;-69
2021/12/28 08:27:36;;;;;;;76.43;23.20;;;0.50;99.90;;;;;;5017225;28;20667;-69
2021/12/28 08:30:04;;;;;;;64.10;21.63;;;0.50;99.90;;;;;;5023748;28;20014;-70
2021/12/28 08:32:31;;;;;;;89.68;24.58;;;0.50;99.90;;;;;;5018685;28;20053;-69
2021/12/28 08:34:56;;;;;;;77.88;23.27;;;0.50;99.90;;;;;;5024472;28;20112;-70
2021/12/28 08:37:22;;;;;;;86.13;24.60;;;0.60;99.90;;;;;;5021582;28;20022;-69
2021/12/28 08:39:48;;;;;;;75.30;23.50;;;0.60;99.90;;;;;;5019982;28;20091;-69
2021/12/28 08:42:14;;;;;;;92.43;25.50;;;0.60;99.90;;;;;;5021480;28;20091;-70
2021/12/28 08:44:40;;;;;;;80.77;25.77;;;0.50;99.90;;;;;;5017863;28;20049;-70
2021/12/28 08:47:06;;;;;;;79.85;24.40;;;0.60;99.90;;;;;;5027053;28;20063;-70
2021/12/28 08:49:33;;;;;;;78.22;25.58;;;0.60;99.90;;;;;;5020425;28;20076;-70
2021/12/28 08:51:58;;;;;;;85.78;26.70;;;0.60;99.90;;;;;;5026716;28;20056;-70
2021/12/28 08:54:24;;;;;;;78.30;24.70;;;0.60;99.90;;;;;;5023007;28;20034;-69
2021/12/28 08:56:51;;;;;;;90.13;25.40;;;0.60;99.90;;;;;;5003453;28;20021;-69
2021/12/28 08:59:18;;;;;;;71.57;24.45;;;0.70;99.90;;;;;;5025265;28;20386;-69
2021/12/28 09:01:45;;;;;;;106.53;26.65;;;0.70;99.90;;;;;;5017393;28;20025;-70
2021/12/28 09:04:11;;;;;;;87.80;25.83;;;0.80;99.90;;;;;;5025465;28;20025;-69
2021/12/28 09:06:37;;;;;;;99.50;24.70;;;0.70;99.90;;;;;;5020680;28;20037;-69
2021/12/28 09:09:03;;;;;;;102.03;27.63;;;0.50;99.90;;;;;;5026923;28;20026;-69
2021/12/28 09:11:29;;;;;;;80.22;23.55;;;0.50;99.90;;;;;;5022180;28;20058;-69
2021/12/28 09:13:56;;;;;;;77.47;25.43;;;0.60;99.90;;;;;;5005273;28;20121;-69
2021/12/28 09:16:22;;;;;;;95.47;30.10;;;0.60;99.90;;;;;;5025616;28;20034;-69
2021/12/28 09:18:49;;;;;;;72.38;22.42;;;0.80;99.90;;;;;;5022616;28;20022;-69
2021/12/28 09:21:15;;;;;;;;;;;0.80;99.90;;;;;;5016553;28;20108;-69
2021/12/28 09:23:41;;;;;;;82.72;22.75;;;0.80;99.90;;;;;;5011853;28;19929;-68
2021/12/28 09:26:07;;;;;;;86.90;26.03;;;0.80;99.90;;;;;;5021264;28;20033;-69
2021/12/28 09:28:32;;;;;;;86.70;24.93;;;0.80;99.90;;;;;;5022491;28;20481;-69
2021/12/28 09:30:58;;;;;;;90.93;26.03;;;0.70;99.90;;;;;;5024491;28;20829;-69
2021/12/28 09:33:25;;;;;;;79.03;23.15;;;0.70;99.90;;;;;;5025231;28;20029;-69
2021/12/28 09:35:52;;;;;;;;;;;0.70;99.90;;;;;;5025285;28;20056;-69
2021/12/28 09:38:19;;;;;;;84.00;23.00;;;0.70;99.90;;;;;;5022621;28;19913;-69
2021/12/28 09:40:46;;;;;;;96.78;27.48;;;0.80;99.90;;;;;;5021468;28;20099;-69
2021/12/28 09:43:13;;;;;;;;;;;0.70;99.90;;;;;;5026421;28;20021;-69
2021/12/28 09:45:39;;;;;;;85.00;24.23;;;0.70;99.90;;;;;;5016347;28;19909;-70
2021/12/28 09:48:06;;;;;;;;;;;0.70;99.90;;;;;;5028094;28;20025;-69
2021/12/28 09:50:34;;;;;;;79.25;22.88;;;0.70;99.90;;;;;;5019542;28;20365;-69
2021/12/28 09:53:00;;;;;;;91.35;23.95;;;0.70;99.90;;;;;;5024616;28;20029;-70
2021/12/28 09:55:27;;;;;;;76.68;22.90;;;0.90;99.90;;;;;;5025520;28;20025;-70
2021/12/28 09:57:53;;;;;;;73.60;23.35;;;1.00;99.90;;;;;;5020478;28;20032;-70
2021/12/28 10:00:21;;;;;;;68.03;21.23;;;1.10;99.90;;;;;;5027658;28;20021;-69
2021/12/28 10:02:47;;;;;;;78.85;25.08;;;1.00;99.90;;;;;;5011186;28;20040;-70
2021/12/28 10:05:18;;;;;;;73.93;22.65;;;0.90;99.90;;;;;;5025085;28;20038;-69
2021/12/28 10:07:57;;;;;;;76.63;24.52;;;0.90;99.90;;;;;;5019990;28;20045;-70
2021/12/28 10:10:28;;;;;;;75.15;21.40;;;0.80;99.90;;;;;;5021427;28;20095;-69
2021/12/28 10:12:59;;;;;;;77.63;24.60;;;0.80;99.90;;;;;;5019582;28;20041;-69
2021/12/28 10:15:30;;;;;;;85.60;22.90;;;0.70;99.90;;;;;;5016386;28;20035;-69
2021/12/28 10:17:59;;;;;;;77.40;21.42;;;0.70;99.90;;;;;;5018666;28;20044;-69
2021/12/28 10:20:31;;;;;;;77.35;22.17;;;0.70;99.90;;;;;;5025361;28;20731;-70
2021/12/28 10:23:01;;;;;;;75.50;20.13;;;0.70;99.90;;;;;;5024389;28;20037;-69
2021/12/28 10:25:33;;;;;;;65.95;21.10;;;0.70;99.90;;;;;;5024581;28;20021;-70
2021/12/28 10:28:03;;;;;;;66.35;21.25;;;0.70;99.90;;;;;;5026454;28;20021;-69
2021/12/28 10:30:36;;;;;;;63.90;18.77;;;0.80;99.90;;;;;;5020922;28;20076;-69
2021/12/28 10:33:08;;;;;;;63.92;20.15;;;0.80;99.90;;;;;;5023944;28;20502;-70
2021/12/28 10:35:37;;;;;;;62.80;19.23;;;0.80;99.90;;;;;;5001827;28;20037;-70
2021/12/28 10:38:10;;;;;;;62.38;19.55;;;0.80;99.90;;;;;;5017570;28;20622;-69
2021/12/28 10:40:40;;;;;;;66.95;20.30;;;0.80;99.90;;;;;;5012628;28;20104;-70
2021/12/28 10:43:13;;;;;;;65.15;19.58;;;0.80;99.90;;;;;;5024389;28;20099;-70
2021/12/28 10:46:00;;;;;;;63.33;19.73;;;0.80;99.90;;;;;;5011963;28;20029;-71
2021/12/28 10:48:33;;;;;;;61.70;18.73;;;0.80;99.90;;;;;;5024123;28;20056;-70
2021/12/28 10:51:04;;;;;;;61.83;19.85;;;0.80;99.90;;;;;;5024278;28;20087;-70
2021/12/28 10:56:32;;;;;;;62.05;19.08;;;0.90;99.90;;;;;;5014520;28;20391;-70
2021/12/28 10:59:03;;;;;;;55.13;17.92;;;1.00;99.90;;;;;;5033959;28;20023;-71
2021/12/28 11:01:33;;;;;;;48.47;16.33;;;1.00;99.90;;;;;;5025572;28;20013;-70
2021/12/28 11:04:03;;;;;;;64.20;19.55;;;1.00;99.90;;;;;;5002390;28;20171;-70
2021/12/28 11:06:34;;;;;;;56.80;16.52;;;1.00;99.90;;;;;;5023219;28;20037;-70
2021/12/28 11:09:03;;;;;;;49.47;18.20;;;1.10;99.90;;;;;;5023147;28;20530;-69
2021/12/28 11:11:29;;;;;;;54.92;17.73;;;1.20;99.90;;;;;;5026267;28;20026;-70
2021/12/28 11:14:01;;;;;;;50.00;17.02;;;1.10;99.90;;;;;;5016564;28;20036;-69
2021/12/28 11:16:29;;;;;;;50.35;17.15;;;1.20;99.90;;;;;;5021373;28;20017;-68
2021/12/28 11:19:00;;;;;;;42.13;15.18;;;1.10;99.90;;;;;;5022331;28;20072;-68
2021/12/28 11:21:35;;;;;;;50.95;16.15;;;1.00;99.90;;;;;;5024192;28;20032;-68
2021/12/28 11:24:13;;;;;;;48.97;16.33;;;1.10;99.90;;;;;;5019937;28;20851;-68
2021/12/28 11:26:42;;;;;;;;;;;1.00;99.90;;;;;;5020012;28;20515;-68
2021/12/28 11:29:23;;;;;;;43.22;15.57;;;1.00;99.90;;;;;;5018750;28;19987;-74
2021/12/28 11:32:02;;;;;;;48.80;14.68;;;1.10;99.90;;;;;;5016964;28;20029;-74
2021/12/28 11:34:36;;;;;;;44.22;13.43;;;1.10;99.90;;;;;;5002545;28;20033;-69
2021/12/28 11:37:08;;;;;;;34.60;12.90;;;1.00;99.90;;;;;;5021261;28;20115;-69
2021/12/28 11:39:42;;;;;;;35.85;12.73;;;0.90;99.90;;;;;;5024456;28;20075;-69
2021/12/28 11:42:12;;;;;;;40.80;13.07;;;0.90;99.90;;;;;;5017380;28;20551;-70
2021/12/28 11:44:38;;;;;;;36.60;13.07;;;1.00;99.90;;;;;;5021165;28;20040;-69
2021/12/28 11:47:09;;;;;;;32.53;12.88;;;1.00;99.90;;;;;;5020114;28;20041;-69
2021/12/28 11:49:36;;;;;;;33.08;12.75;;;1.00;99.90;;;;;;5010000;28;20033;-69
2021/12/28 11:52:07;;;;;;;38.90;13.25;;;0.90;99.90;;;;;;5025250;28;20115;-69
2021/12/28 11:54:38;;;;;;;30.30;13.13;;;0.90;99.90;;;;;;5020157;28;20656;-70
2021/12/28 11:57:18;;;;;;;42.42;14.05;;;0.90;99.90;;;;;;5018855;28;20021;-69
2021/12/28 11:59:56;;;;;;;35.38;13.55;;;0.70;99.90;;;;;;5015290;28;20048;-70
2021/12/28 12:02:38;;;;;;;39.42;14.27;;;0.70;99.90;;;;;;5020406;28;20075;-69
2021/12/28 12:05:23;;;;;;;44.83;15.75;;;0.60;99.90;;;;;;5004458;28;20010;-69
2021/12/28 12:08:19;;;;;;;42.58;14.32;;;0.60;99.90;;;;;;5018679;28;20018;-69
2021/12/28 12:10:50;;;;;;;41.08;13.75;;;0.50;99.90;;;;;;5002675;28;20120;-69
2021/12/28 12:13:23;;;;;;;53.17;15.55;;;0.50;99.90;;;;;;5002778;28;20026;-69
2021/12/28 12:15:55;;;;;;;39.22;14.40;;;0.40;99.90;;;;;;5018120;28;20029;-69
2021/12/28 12:18:25;;;;;;;42.65;15.43;;;0.40;99.90;;;;;;5020061;28;20074;-69
2021/12/28 12:20:58;;;;;;;49.40;17.40;;;0.40;99.90;;;;;;5031998;28;20017;-69
2021/12/28 12:23:26;;;;;;;42.50;15.57;;;0.40;99.90;;;;;;5025627;28;20038;-69
2021/12/28 12:26:01;;;;;;;56.30;16.35;;;0.40;99.90;;;;;;5013847;28;20028;-70
2021/12/28 12:28:34;;;;;;;54.70;16.25;;;0.40;99.90;;;;;;5016881;28;20032;-69
2021/12/28 12:31:02;;;;;;;45.67;15.48;;;0.40;99.90;;;;;;5024077;28;20033;-69
2021/12/28 12:33:42;;;;;;;41.63;14.90;;;0.40;99.90;;;;;;5026419;28;20025;-69
2021/12/28 12:36:18;;;;;;;36.88;15.05;;;0.40;99.90;;;;;;5017285;28;20036;-69
2021/12/28 12:38:45;;;;;;;37.08;14.20;;;0.40;99.90;;;;;;5024877;28;20027;-69
2021/12/28 12:41:18;;;;;;;35.10;13.63;;;0.50;99.90;;;;;;5014169;28;20056;-70
2021/12/28 12:44:08;;;;;;;40.22;14.20;;;0.50;99.90;;;;;;5017787;28;20101;-69
2021/12/28 12:46:37;;;;;;;43.60;13.05;;;0.50;99.90;;;;;;5004502;28;20064;-69
2021/12/28 12:49:20;;;;;;;44.30;15.77;;;0.50;99.90;;;;;;5025085;28;20713;-70
2021/12/28 12:51:58;;;;;;;41.38;13.35;;;0.60;99.90;;;;;;5029256;28;20021;-69